Time;durP1;ratioP1;P1;durP2;ratioP2;P2;SDS_P1;SDS_P2;PMS_P1;PMS_P2;Temp;Humidity;BMP_temperature;BMP_pressure;BME280_temperature;BME280_humidity;BME280_pressure;Samples;Min_cycle;Max_cycle;Signal;HPM_P1;HPM_P2
2022/09/07 00:02:19;;;;;;;4.15;2.15;;;;;;;;;;5049705;28;21033;-78
2022/09/07 00:04:46;;;;;;;8.47;1.97;;;;;;;;;;5048385;28;20207;-77
2022/09/07 00:07:15;;;;;;;5.83;1.87;;;;;;;;;;5047416;28;20255;-78
2022/09/07 00:09:42;;;;;;;2.80;1.90;;;;;;;;;;5050190;28;20245;-78
2022/09/07 00:12:09;;;;;;;5.90;1.97;;;;;;;;;;5050141;28;20592;-78
2022/09/07 00:14:36;;;;;;;4.70;1.87;;;;;;;;;;5049611;28;20664;-78
2022/09/07 00:17:04;;;;;;;4.77;2.27;;;;;;;;;;5048288;28;20318;-78
2022/09/07 00:19:31;;;;;;;7.97;2.33;;;;;;;;;;5049624;28;20238;-78
2022/09/07 00:21:58;;;;;;;2.50;1.80;;;;;;;;;;5049864;28;20290;-78
2022/09/07 00:24:27;;;;;;;4.63;2.30;;;;;;;;;;5047449;28;20741;-78
2022/09/07 00:26:55;;;;;;;4.27;2.07;;;;;;;;;;5046626;28;20230;-78
2022/09/07 00:29:22;;;;;;;7.17;1.93;;;;;;;;;;5052596;28;20294;-78
2022/09/07 00:31:53;;;;;;;3.87;1.90;;;;;;;;;;5046250;28;20249;-78
2022/09/07 00:34:20;;;;;;;4.53;2.07;;;;;;;;;;5046329;28;20308;-78
2022/09/07 00:36:47;;;;;;;4.23;2.17;;;;;;;;;;5048804;28;20223;-78
2022/09/07 00:39:14;;;;;;;6.20;1.93;;;;;;;;;;5047996;28;20285;-78
2022/09/07 00:41:43;;;;;;;5.97;2.10;;;;;;;;;;5047764;28;20293;-78
2022/09/07 00:44:29;;;;;;;2.47;1.90;;;;;;;;;;5048943;28;20289;-78
2022/09/07 00:46:56;;;;;;;4.23;1.90;;;;;;;;;;5046936;28;20345;-78
2022/09/07 00:49:23;;;;;;;6.03;1.97;;;;;;;;;;5048192;28;20708;-78
2022/09/07 00:51:53;;;;;;;6.20;2.33;;;;;;;;;;5045393;28;20310;-79
2022/09/07 00:54:22;;;;;;;3.27;2.03;;;;;;;;;;5048569;28;20211;-78
2022/09/07 00:56:51;;;;;;;6.37;2.30;;;;;;;;;;5047896;28;20349;-78
2022/09/07 00:59:20;;;;;;;5.67;2.20;;;;;;;;;;5050233;28;20195;-78
2022/09/07 01:01:48;;;;;;;4.73;2.20;;;;;;;;;;5045651;28;20297;-78
2022/09/07 01:04:15;;;;;;;3.43;1.90;;;;;;;;;;5046071;28;20207;-78
2022/09/07 01:06:43;;;;;;;10.97;2.07;;;;;;;;;;5041837;28;20254;-77
2022/09/07 01:09:11;;;;;;;9.93;1.87;;;;;;;;;;5041046;28;20301;-77
2022/09/07 01:11:39;;;;;;;6.13;1.40;;;;;;;;;;5048078;28;20234;-77
2022/09/07 01:14:09;;;;;;;9.03;1.70;;;;;;;;;;5045996;28;20678;-78
2022/09/07 01:16:42;;;;;;;5.37;1.57;;;;;;;;;;5049477;28;20232;-78
2022/09/07 01:19:18;;;;;;;8.40;1.90;;;;;;;;;;5049739;28;20199;-79
2022/09/07 01:21:51;;;;;;;4.17;1.60;;;;;;;;;;5050465;28;20206;-80
2022/09/07 01:24:34;;;;;;;6.53;1.90;;;;;;;;;;5050502;28;20229;-79
2022/09/07 01:27:20;;;;;;;3.47;1.43;;;;;;;;;;5053164;28;20245;-78
2022/09/07 01:29:51;;;;;;;5.27;1.50;;;;;;;;;;5046916;28;20286;-78
2022/09/07 01:32:22;;;;;;;6.63;2.20;;;;;;;;;;5044415;28;20282;-78
2022/09/07 01:34:52;;;;;;;9.97;1.50;;;;;;;;;;5051044;28;20226;-78
2022/09/07 01:37:23;;;;;;;8.97;2.33;;;;;;;;;;5048301;28;20223;-78
2022/09/07 01:39:52;;;;;;;2.93;1.60;;;;;;;;;;5051572;28;20586;-77
2022/09/07 01:42:23;;;;;;;4.37;2.03;;;;;;;;;;5045918;28;20291;-78
2022/09/07 01:44:52;;;;;;;3.97;1.60;;;;;;;;;;5053228;28;20192;-78
2022/09/07 01:47:22;;;;;;;4.20;1.50;;;;;;;;;;5040749;28;20603;-77
2022/09/07 01:49:52;;;;;;;9.67;1.87;;;;;;;;;;5044923;28;20234;-77
2022/09/07 01:52:23;;;;;;;8.33;2.10;;;;;;;;;;5049051;28;20239;-78
2022/09/07 01:54:53;;;;;;;7.77;2.00;;;;;;;;;;5045135;28;20215;-76
2022/09/07 01:57:26;;;;;;;4.40;1.70;;;;;;;;;;5044407;28;20245;-77
2022/09/07 01:59:54;;;;;;;8.87;2.13;;;;;;;;;;5053673;28;20286;-78
2022/09/07 02:02:25;;;;;;;5.93;2.03;;;;;;;;;;5046532;28;20196;-77
2022/09/07 02:04:56;;;;;;;8.10;2.00;;;;;;;;;;5049539;28;20282;-78
2022/09/07 02:07:25;;;;;;;6.93;2.53;;;;;;;;;;5052362;28;20582;-78
2022/09/07 02:09:55;;;;;;;5.17;1.83;;;;;;;;;;5057417;28;20222;-78
2022/09/07 02:12:27;;;;;;;3.53;1.83;;;;;;;;;;5055594;28;20239;-77
2022/09/07 02:14:56;;;;;;;4.33;1.97;;;;;;;;;;5050226;28;20301;-78
2022/09/07 02:17:27;;;;;;;3.70;1.77;;;;;;;;;;5050250;28;20364;-78
2022/09/07 02:19:58;;;;;;;3.23;1.97;;;;;;;;;;5046302;28;20283;-77
2022/09/07 02:22:27;;;;;;;7.80;2.00;;;;;;;;;;5049947;28;20207;-78
2022/09/07 02:24:56;;;;;;;5.30;1.87;;;;;;;;;;5049966;28;20294;-76
2022/09/07 02:27:29;;;;;;;4.83;1.87;;;;;;;;;;5047963;28;20306;-78
2022/09/07 02:29:56;;;;;;;6.70;1.83;;;;;;;;;;5054021;28;20245;-78
2022/09/07 02:32:24;;;;;;;5.37;1.97;;;;;;;;;;5052103;28;20205;-77
2022/09/07 02:34:51;;;;;;;3.40;1.90;;;;;;;;;;5055353;28;20258;-77
2022/09/07 02:37:19;;;;;;;3.90;2.10;;;;;;;;;;5047526;28;20350;-78
2022/09/07 02:39:46;;;;;;;7.73;1.93;;;;;;;;;;5053901;28;20290;-78
2022/09/07 02:42:13;;;;;;;5.00;1.90;;;;;;;;;;5048357;28;20203;-78
2022/09/07 02:44:44;;;;;;;4.50;1.97;;;;;;;;;;5057339;28;20232;-78
2022/09/07 02:47:21;;;;;;;3.10;2.03;;;;;;;;;;5051754;28;20254;-77
2022/09/07 02:50:04;;;;;;;5.10;1.67;;;;;;;;;;5049769;28;20745;-79
2022/09/07 02:52:36;;;;;;;3.07;2.10;;;;;;;;;;5056730;28;20225;-78
2022/09/07 02:55:10;;;;;;;5.70;1.70;;;;;;;;;;5049720;28;20245;-78
2022/09/07 02:57:45;;;;;;;6.77;2.23;;;;;;;;;;5051490;28;20230;-77
2022/09/07 03:00:16;;;;;;;5.23;2.20;;;;;;;;;;5050951;28;20273;-79
2022/09/07 03:02:50;;;;;;;7.23;2.20;;;;;;;;;;5053676;28;20206;-79
2022/09/07 03:05:20;;;;;;;6.17;2.30;;;;;;;;;;5053596;28;20230;-78
2022/09/07 03:07:52;;;;;;;3.17;2.03;;;;;;;;;;5057083;28;20306;-78
2022/09/07 03:10:19;;;;;;;9.27;2.20;;;;;;;;;;5050338;28;20222;-79
2022/09/07 03:12:48;;;;;;;7.40;2.10;;;;;;;;;;5052211;28;20614;-79
2022/09/07 03:15:17;;;;;;;5.20;2.00;;;;;;;;;;5049951;28;20278;-79
2022/09/07 03:17:45;;;;;;;4.63;2.37;;;;;;;;;;5052271;28;20636;-79
2022/09/07 03:20:13;;;;;;;6.77;2.33;;;;;;;;;;5050416;28;20650;-78
2022/09/07 03:22:40;;;;;;;5.77;2.00;;;;;;;;;;5053084;28;20306;-78
2022/09/07 03:25:08;;;;;;;3.97;2.03;;;;;;;;;;5051560;28;20719;-76
2022/09/07 03:27:35;;;;;;;6.60;2.33;;;;;;;;;;5053933;28;20254;-78
2022/09/07 03:30:02;;;;;;;4.23;2.10;;;;;;;;;;5053000;28;20332;-78
2022/09/07 03:32:32;;;;;;;6.43;2.47;;;;;;;;;;5050343;28;20238;-79
2022/09/07 03:34:59;;;;;;;4.53;2.70;;;;;;;;;;5053432;28;20262;-78
2022/09/07 03:37:27;;;;;;;2.53;2.00;;;;;;;;;;5049763;28;20294;-79
2022/09/07 03:39:54;;;;;;;3.80;2.60;;;;;;;;;;5057168;28;20246;-78
2022/09/07 03:42:21;;;;;;;4.17;2.10;;;;;;;;;;5048543;28;20206;-78
2022/09/07 03:44:49;;;;;;;5.13;2.33;;;;;;;;;;5052806;28;20243;-76
2022/09/07 03:47:16;;;;;;;4.00;2.20;;;;;;;;;;5053228;28;20223;-79
2022/09/07 03:49:45;;;;;;;5.60;2.23;;;;;;;;;;5052071;28;20286;-79
2022/09/07 03:52:12;;;;;;;4.43;2.00;;;;;;;;;;5048894;28;20234;-77
2022/09/07 03:54:39;;;;;;;7.13;2.90;;;;;;;;;;5054592;28;20336;-79
2022/09/07 03:57:07;;;;;;;8.47;2.43;;;;;;;;;;5050828;28;20326;-77
2022/09/07 03:59:34;;;;;;;5.43;2.87;;;;;;;;;;5052007;28;20298;-79
2022/09/07 04:02:04;;;;;;;4.70;2.67;;;;;;;;;;5049919;28;20693;-78
2022/09/07 04:04:35;;;;;;;6.90;2.70;;;;;;;;;;5049198;28;20271;-78
2022/09/07 04:07:08;;;;;;;3.90;2.60;;;;;;;;;;5053127;28;20218;-78
2022/09/07 04:09:35;;;;;;;5.73;2.70;;;;;;;;;;5049703;28;20207;-77
2022/09/07 04:12:03;;;;;;;4.67;3.20;;;;;;;;;;5053561;28;20736;-79
2022/09/07 04:14:30;;;;;;;6.73;3.27;;;;;;;;;;5048123;28;20585;-78
2022/09/07 04:16:59;;;;;;;8.20;3.50;;;;;;;;;;5053712;28;20314;-78
2022/09/07 04:19:26;;;;;;;9.43;3.40;;;;;;;;;;5048490;28;20560;-78
2022/09/07 04:21:54;;;;;;;8.07;3.57;;;;;;;;;;5048680;28;20230;-78
2022/09/07 04:24:22;;;;;;;8.43;3.50;;;;;;;;;;5049069;28;20322;-79
2022/09/07 04:26:49;;;;;;;11.13;3.40;;;;;;;;;;5051386;28;20643;-77
2022/09/07 04:29:18;;;;;;;6.67;3.53;;;;;;;;;;5050899;28;20199;-78
2022/09/07 04:31:45;;;;;;;6.40;3.37;;;;;;;;;;5050052;28;20249;-79
2022/09/07 04:34:12;;;;;;;7.93;3.70;;;;;;;;;;5054560;28;20241;-76
2022/09/07 04:36:39;;;;;;;7.63;3.90;;;;;;;;;;5052911;28;20265;-79
2022/09/07 04:39:07;;;;;;;6.90;4.80;;;;;;;;;;5050809;28;20772;-78
2022/09/07 04:41:35;;;;;;;8.53;4.43;;;;;;;;;;5050295;28;20246;-77
2022/09/07 04:44:03;;;;;;;6.97;4.40;;;;;;;;;;5046494;28;20298;-78
2022/09/07 04:46:33;;;;;;;9.17;4.27;;;;;;;;;;5048380;28;20199;-78
2022/09/07 04:49:01;;;;;;;8.07;4.50;;;;;;;;;;5051087;28;20210;-77
2022/09/07 04:51:30;;;;;;;6.83;4.40;;;;;;;;;;5047311;28;20211;-77
2022/09/07 04:53:58;;;;;;;7.10;4.60;;;;;;;;;;5048962;28;20288;-78
2022/09/07 04:56:26;;;;;;;8.93;4.20;;;;;;;;;;5049612;28;20215;-78
2022/09/07 04:58:54;;;;;;;8.97;4.40;;;;;;;;;;5047087;28;20206;-76
2022/09/07 05:01:22;;;;;;;10.43;4.33;;;;;;;;;;5048426;28;20689;-79
2022/09/07 05:03:50;;;;;;;5.03;3.60;;;;;;;;;;5055224;28;20231;-79
2022/09/07 05:06:18;;;;;;;9.20;4.70;;;;;;;;;;5045548;28;20230;-75
2022/09/07 05:08:46;;;;;;;8.53;4.30;;;;;;;;;;5052314;28;20660;-78
2022/09/07 05:11:14;;;;;;;9.53;4.73;;;;;;;;;;5054776;28;20248;-76
2022/09/07 05:13:41;;;;;;;6.13;3.80;;;;;;;;;;5054578;28;20238;-78
2022/09/07 05:16:11;;;;;;;8.57;3.70;;;;;;;;;;5052061;28;20313;-76
2022/09/07 05:18:38;;;;;;;5.67;3.60;;;;;;;;;;5050186;28;20231;-79
2022/09/07 05:21:09;;;;;;;5.73;3.40;;;;;;;;;;5047936;28;20616;-78
2022/09/07 05:23:36;;;;;;;5.47;3.20;;;;;;;;;;5047128;28;20230;-79
2022/09/07 05:26:04;;;;;;;6.40;3.60;;;;;;;;;;5045293;28;20314;-76
2022/09/07 05:28:31;;;;;;;7.70;3.83;;;;;;;;;;5047900;28;20286;-75
2022/09/07 05:31:04;;;;;;;6.77;3.70;;;;;;;;;;5046506;28;20334;-80
2022/09/07 05:33:32;;;;;;;8.13;3.27;;;;;;;;;;5048537;28;20607;-76
2022/09/07 05:36:00;;;;;;;6.33;3.30;;;;;;;;;;5050414;28;20269;-76
2022/09/07 05:38:28;;;;;;;5.50;3.27;;;;;;;;;;5048247;28;20318;-79
2022/09/07 05:40:55;;;;;;;6.53;3.40;;;;;;;;;;5054556;28;20226;-80
2022/09/07 05:43:22;;;;;;;7.70;3.47;;;;;;;;;;5045835;28;20285;-78
2022/09/07 05:45:50;;;;;;;6.57;3.10;;;;;;;;;;5050956;28;20245;-79
2022/09/07 05:48:17;;;;;;;7.97;3.50;;;;;;;;;;5048637;28;20341;-75
2022/09/07 05:50:51;;;;;;;6.90;3.57;;;;;;;;;;5050163;28;20246;-77
2022/09/07 05:53:19;;;;;;;6.23;3.30;;;;;;;;;;5049064;28;20230;-77
2022/09/07 05:55:46;;;;;;;7.83;3.20;;;;;;;;;;5048267;28;20210;-78
2022/09/07 05:58:13;;;;;;;4.10;3.00;;;;;;;;;;5055072;28;20705;-78
2022/09/07 06:00:40;;;;;;;4.20;2.83;;;;;;;;;;5052848;28;20203;-77
2022/09/07 06:03:08;;;;;;;5.53;3.20;;;;;;;;;;5052017;28;20238;-78
2022/09/07 06:05:35;;;;;;;3.97;2.73;;;;;;;;;;5051539;28;20206;-78
2022/09/07 06:08:04;;;;;;;4.43;2.63;;;;;;;;;;5050388;28;20306;-79
2022/09/07 06:10:34;;;;;;;3.93;2.77;;;;;;;;;;5054680;28;20340;-77
2022/09/07 06:13:01;;;;;;;5.70;2.80;;;;;;;;;;5052275;28;20266;-79
2022/09/07 06:15:28;;;;;;;5.00;2.63;;;;;;;;;;5053387;28;20253;-79
2022/09/07 06:17:55;;;;;;;5.40;2.90;;;;;;;;;;5049955;28;20783;-78
2022/09/07 06:20:23;;;;;;;7.10;3.00;;;;;;;;;;5048809;28;20207;-79
2022/09/07 06:22:50;;;;;;;8.43;3.03;;;;;;;;;;5052086;28;20298;-79
2022/09/07 06:25:18;;;;;;;6.50;3.07;;;;;;;;;;5050191;28;20207;-77
2022/09/07 06:27:48;;;;;;;7.70;3.33;;;;;;;;;;5049356;28;20677;-78
2022/09/07 06:30:15;;;;;;;6.87;3.07;;;;;;;;;;5052168;28;20207;-77
2022/09/07 06:32:42;;;;;;;4.33;3.10;;;;;;;;;;5057419;28;20209;-76
2022/09/07 06:35:10;;;;;;;4.10;2.87;;;;;;;;;;5053690;28;20783;-77
2022/09/07 06:37:38;;;;;;;5.77;3.13;;;;;;;;;;5051180;28;20238;-78
2022/09/07 06:40:06;;;;;;;5.97;3.30;;;;;;;;;;5054045;28;20233;-78
2022/09/07 06:42:34;;;;;;;5.03;3.07;;;;;;;;;;5050359;28;20203;-79
2022/09/07 06:45:01;;;;;;;11.90;3.80;;;;;;;;;;5051566;28;20290;-79
2022/09/07 06:47:29;;;;;;;6.30;3.97;;;;;;;;;;5052773;28;20333;-78
2022/09/07 06:49:56;;;;;;;7.70;3.87;;;;;;;;;;5046713;28;20665;-77
2022/09/07 06:52:23;;;;;;;6.80;3.90;;;;;;;;;;5050353;28;20230;-76
2022/09/07 06:54:50;;;;;;;6.53;4.20;;;;;;;;;;5055689;28;20271;-76
2022/09/07 06:57:17;;;;;;;8.40;4.50;;;;;;;;;;5049119;28;20294;-78
2022/09/07 06:59:46;;;;;;;9.00;4.20;;;;;;;;;;5050767;28;20297;-78
2022/09/07 07:02:13;;;;;;;10.90;4.03;;;;;;;;;;5050322;28;20233;-78
2022/09/07 07:04:41;;;;;;;8.87;4.60;;;;;;;;;;5053617;28;20204;-75
2022/09/07 07:07:10;;;;;;;9.37;4.30;;;;;;;;;;5051321;28;20274;-78
2022/09/07 07:09:37;;;;;;;5.77;4.50;;;;;;;;;;5050420;28;20203;-77
2022/09/07 07:12:05;;;;;;;5.83;4.40;;;;;;;;;;5045427;28;20211;-77
2022/09/07 07:14:32;;;;;;;10.00;4.20;;;;;;;;;;5048417;28;20231;-78
2022/09/07 07:17:00;;;;;;;9.07;4.17;;;;;;;;;;5053635;28;20295;-76
2022/09/07 07:19:27;;;;;;;6.63;4.27;;;;;;;;;;5052618;28;20632;-78
2022/09/07 07:21:55;;;;;;;10.40;4.70;;;;;;;;;;5052193;28;20327;-78
2022/09/07 07:24:23;;;;;;;11.07;4.47;;;;;;;;;;5053991;28;20229;-77
2022/09/07 07:26:50;;;;;;;9.03;4.13;;;;;;;;;;5052342;28;20251;-78
2022/09/07 07:29:18;;;;;;;9.07;3.87;;;;;;;;;;5051352;28;20213;-78
2022/09/07 07:31:45;;;;;;;8.90;4.13;;;;;;;;;;5054779;28;20325;-79
2022/09/07 07:34:14;;;;;;;8.10;3.70;;;;;;;;;;5056444;28;20222;-78
2022/09/07 07:36:41;;;;;;;10.10;3.77;;;;;;;;;;5050446;28;20214;-76
2022/09/07 07:39:10;;;;;;;7.13;3.73;;;;;;;;;;5054239;28;20222;-78
2022/09/07 07:41:37;;;;;;;5.63;2.80;;;;;;;;;;5053881;28;20226;-77
2022/09/07 07:44:04;;;;;;;6.63;3.23;;;;;;;;;;5052175;28;20231;-78
2022/09/07 07:46:32;;;;;;;4.97;3.20;;;;;;;;;;5053356;28;20230;-78
2022/09/07 07:49:00;;;;;;;10.13;3.40;;;;;;;;;;5050000;28;20277;-77
2022/09/07 07:51:28;;;;;;;6.17;2.97;;;;;;;;;;5051070;28;20862;-77
2022/09/07 07:53:57;;;;;;;9.13;3.30;;;;;;;;;;5054561;28;20227;-78
2022/09/07 07:56:24;;;;;;;6.27;2.90;;;;;;;;;;5049662;28;20238;-77
2022/09/07 07:58:52;;;;;;;9.10;3.00;;;;;;;;;;5050169;28;20324;-78
2022/09/07 08:01:19;;;;;;;8.00;2.97;;;;;;;;;;5050265;28;20203;-76
2022/09/07 08:03:47;;;;;;;8.00;3.20;;;;;;;;;;5049520;28;20665;-77
2022/09/07 08:06:16;;;;;;;4.73;2.50;;;;;;;;;;5050161;28;20209;-77
2022/09/07 08:08:44;;;;;;;11.37;2.70;;;;;;;;;;5047293;28;20301;-76
2022/09/07 08:11:16;;;;;;;8.33;2.80;;;;;;;;;;5050475;28;20262;-78
2022/09/07 08:13:43;;;;;;;5.90;2.57;;;;;;;;;;5048997;28;20207;-77
2022/09/07 08:16:11;;;;;;;5.27;2.70;;;;;;;;;;5051107;28;20298;-77
2022/09/07 08:18:39;;;;;;;4.43;2.57;;;;;;;;;;5046756;28;20257;-78
2022/09/07 08:21:08;;;;;;;6.20;2.50;;;;;;;;;;5045833;28;20701;-76
2022/09/07 08:23:37;;;;;;;9.30;2.80;;;;;;;;;;5047173;28;20207;-75
2022/09/07 08:26:06;;;;;;;7.17;2.80;;;;;;;;;;5050953;28;20230;-77
2022/09/07 08:28:34;;;;;;;5.83;2.67;;;;;;;;;;5043586;28;20223;-75
2022/09/07 08:31:04;;;;;;;4.83;2.20;;;;;;;;;;5044161;28;20203;-77
2022/09/07 08:33:31;;;;;;;5.13;2.90;;;;;;;;;;5047445;28;20210;-75
2022/09/07 08:36:01;;;;;;;8.80;3.17;;;;;;;;;;5045823;28;20231;-76
2022/09/07 08:38:29;;;;;;;7.93;2.50;;;;;;;;;;5049200;28;20579;-77
2022/09/07 08:40:57;;;;;;;5.57;2.60;;;;;;;;;;5043957;28;20198;-77
2022/09/07 08:43:29;;;;;;;6.50;2.60;;;;;;;;;;5043128;28;20199;-76
2022/09/07 08:46:00;;;;;;;8.67;2.47;;;;;;;;;;5045988;28;20210;-76
2022/09/07 08:48:29;;;;;;;9.23;2.53;;;;;;;;;;5046432;28;20230;-77
2022/09/07 08:50:59;;;;;;;5.57;2.20;;;;;;;;;;5044558;28;20213;-78
2022/09/07 08:53:27;;;;;;;6.33;2.80;;;;;;;;;;5045310;28;20203;-77
2022/09/07 08:55:56;;;;;;;5.50;3.03;;;;;;;;;;5046180;28;20218;-77
2022/09/07 08:58:25;;;;;;;5.67;2.50;;;;;;;;;;5052261;28;20234;-77
2022/09/07 09:00:54;;;;;;;5.73;2.53;;;;;;;;;;5044948;28;20199;-76
2022/09/07 09:03:21;;;;;;;8.23;3.00;;;;;;;;;;5043453;28;20207;-76
2022/09/07 09:05:52;;;;;;;6.60;2.50;;;;;;;;;;5047062;28;20653;-76
2022/09/07 09:08:28;;;;;;;9.17;3.30;;;;;;;;;;5045830;28;20218;-76
2022/09/07 09:11:02;;;;;;;6.20;3.00;;;;;;;;;;5051402;28;20210;-77
2022/09/07 09:13:36;;;;;;;5.73;2.53;;;;;;;;;;5047837;28;20281;-76
2022/09/07 09:16:06;;;;;;;4.17;2.50;;;;;;;;;;5054638;28;20190;-76
2022/09/07 09:18:51;;;;;;;5.00;2.83;;;;;;;;;;5054650;28;20313;-76
2022/09/07 09:21:19;;;;;;;4.43;2.10;;;;;;;;;;5054623;28;20227;-76
2022/09/07 09:23:48;;;;;;;5.53;2.70;;;;;;;;;;5055225;28;20294;-76
2022/09/07 09:26:18;;;;;;;4.10;2.40;;;;;;;;;;5055072;28;20202;-76
2022/09/07 09:28:49;;;;;;;7.77;2.67;;;;;;;;;;5053097;28;20229;-75
2022/09/07 09:31:21;;;;;;;6.90;2.67;;;;;;;;;;5041322;28;20254;-76
2022/09/07 09:34:03;;;;;;;5.33;1.90;;;;;;;;;;5051353;28;20199;-77
2022/09/07 09:36:33;;;;;;;6.00;2.23;;;;;;;;;;5052874;28;20203;-77
2022/09/07 09:39:00;;;;;;;3.77;2.37;;;;;;;;;;5046700;28;20697;-77
2022/09/07 09:41:36;;;;;;;4.20;2.00;;;;;;;;;;5047745;28;20203;-77
2022/09/07 09:44:03;;;;;;;5.17;2.40;;;;;;;;;;5041450;28;20722;-77
2022/09/07 09:46:33;;;;;;;4.10;2.00;;;;;;;;;;5047287;28;20588;-77
2022/09/07 09:49:01;;;;;;;5.33;2.33;;;;;;;;;;5050681;28;20653;-77
2022/09/07 09:51:30;;;;;;;4.07;2.17;;;;;;;;;;5048873;28;20529;-77
2022/09/07 09:53:58;;;;;;;9.63;2.60;;;;;;;;;;5046012;28;20674;-77
2022/09/07 09:56:36;;;;;;;5.93;2.20;;;;;;;;;;5047879;28;20211;-77
2022/09/07 09:59:12;;;;;;;6.10;2.30;;;;;;;;;;5049561;28;20221;-77
2022/09/07 10:01:41;;;;;;;5.43;2.60;;;;;;;;;;5055116;28;20712;-76
2022/09/07 10:04:18;;;;;;;8.23;2.10;;;;;;;;;;5044740;28;20582;-76
2022/09/07 10:06:50;;;;;;;3.77;2.20;;;;;;;;;;5043651;28;20229;-76
2022/09/07 10:09:19;;;;;;;4.80;1.87;;;;;;;;;;5046035;28;20281;-77
2022/09/07 10:11:53;;;;;;;3.90;2.00;;;;;;;;;;5052774;28;20229;-76
2022/09/07 10:14:24;;;;;;;4.90;2.03;;;;;;;;;;5057421;28;20294;-76
2022/09/07 10:16:53;;;;;;;5.33;1.90;;;;;;;;;;5045312;28;20306;-76
2022/09/07 10:19:25;;;;;;;5.30;1.80;;;;;;;;;;5052444;28;20307;-76
2022/09/07 10:21:58;;;;;;;5.23;2.00;;;;;;;;;;5057736;28;20580;-77
2022/09/07 10:24:27;;;;;;;9.40;1.93;;;;;;;;;;5056677;28;20291;-76
2022/09/07 10:26:54;;;;;;;4.40;2.07;;;;;;;;;;5049041;28;20228;-76
2022/09/07 10:29:26;;;;;;;3.00;1.77;;;;;;;;;;5036026;28;20243;-76
2022/09/07 10:32:02;;;;;;;2.07;1.33;;;;;;;;;;5053195;28;20188;-76
2022/09/07 10:34:34;;;;;;;2.33;1.77;;;;;;;;;;5052595;28;20211;-76
2022/09/07 10:37:03;;;;;;;4.03;1.57;;;;;;;;;;5046432;28;20227;-77
2022/09/07 10:39:33;;;;;;;2.67;1.60;;;;;;;;;;5056669;28;20218;-76
2022/09/07 10:42:10;;;;;;;7.17;1.80;;;;;;;;;;5054958;28;20222;-76
2022/09/07 10:44:43;;;;;;;4.90;1.60;;;;;;;;;;5044889;28;20204;-77
2022/09/07 10:47:17;;;;;;;2.97;1.47;;;;;;;;;;5048256;28;20812;-75
2022/09/07 10:49:47;;;;;;;3.33;1.40;;;;;;;;;;5048386;28;20195;-75
2022/09/07 10:52:17;;;;;;;6.10;1.60;;;;;;;;;;5051331;28;20740;-76
2022/09/07 10:54:48;;;;;;;4.77;1.33;;;;;;;;;;5052376;28;20577;-76
2022/09/07 10:57:29;;;;;;;3.77;1.50;;;;;;;;;;5053545;28;20237;-76
2022/09/07 11:00:02;;;;;;;5.57;1.40;;;;;;;;;;5050294;28;20271;-76
2022/09/07 11:02:34;;;;;;;2.13;1.27;;;;;;;;;;5046226;28;20198;-75
2022/09/07 11:05:03;;;;;;;3.63;1.53;;;;;;;;;;5048765;28;20207;-77
2022/09/07 11:07:44;;;;;;;2.33;1.33;;;;;;;;;;5048819;28;20231;-75
2022/09/07 11:10:16;;;;;;;2.50;1.33;;;;;;;;;;5048047;28;20769;-76
2022/09/07 11:12:45;;;;;;;2.17;1.17;;;;;;;;;;5049386;28;20204;-76
2022/09/07 11:15:17;;;;;;;6.33;1.67;;;;;;;;;;5046038;28;20207;-76
2022/09/07 11:17:47;;;;;;;6.50;1.40;;;;;;;;;;5039290;28;20252;-76
2022/09/07 11:20:19;;;;;;;4.83;1.30;;;;;;;;;;5049326;28;20294;-76
2022/09/07 11:22:48;;;;;;;4.37;1.50;;;;;;;;;;5047118;28;20305;-76
2022/09/07 11:25:17;;;;;;;2.67;0.83;;;;;;;;;;5049574;28;20287;-75
2022/09/07 11:27:47;;;;;;;4.87;1.30;;;;;;;;;;5050019;28;20233;-75
2022/09/07 11:30:19;;;;;;;4.20;1.30;;;;;;;;;;5045997;28;20747;-77
2022/09/07 11:32:51;;;;;;;2.83;1.23;;;;;;;;;;5049271;28;20203;-76
2022/09/07 11:35:23;;;;;;;5.00;1.30;;;;;;;;;;5048722;28;20672;-75
2022/09/07 11:37:58;;;;;;;2.73;1.30;;;;;;;;;;5046077;28;20792;-75
2022/09/07 11:40:28;;;;;;;2.53;1.10;;;;;;;;;;5042480;28;20195;-76
2022/09/07 11:42:58;;;;;;;3.03;1.37;;;;;;;;;;5052026;28;20199;-76
2022/09/07 11:45:29;;;;;;;4.53;1.37;;;;;;;;;;5046510;28;20203;-77
2022/09/07 11:48:02;;;;;;;3.03;1.30;;;;;;;;;;5044860;28;20220;-76
2022/09/07 11:50:32;;;;;;;3.60;1.10;;;;;;;;;;5049650;28;20560;-76
2022/09/07 11:53:01;;;;;;;2.27;1.30;;;;;;;;;;5042748;28;20236;-76
2022/09/07 11:55:30;;;;;;;3.97;1.20;;;;;;;;;;5048065;28;20332;-75
2022/09/07 11:58:15;;;;;;;4.83;1.50;;;;;;;;;;5047875;28;20230;-76
2022/09/07 12:00:45;;;;;;;6.40;1.60;;;;;;;;;;5044544;28;20213;-77
2022/09/07 12:03:31;;;;;;;5.10;1.50;;;;;;;;;;5046933;28;20209;-76
2022/09/07 12:06:15;;;;;;;2.80;1.17;;;;;;;;;;5043595;28;20260;-75
2022/09/07 12:08:51;;;;;;;5.33;1.10;;;;;;;;;;5039349;28;20226;-76
2022/09/07 12:11:23;;;;;;;2.13;1.20;;;;;;;;;;5050128;28;20275;-77
2022/09/07 12:13:58;;;;;;;2.60;1.40;;;;;;;;;;5046422;28;20329;-75
2022/09/07 12:16:33;;;;;;;5.53;1.30;;;;;;;;;;5048001;28;20203;-76
2022/09/07 12:19:18;;;;;;;3.13;1.10;;;;;;;;;;5036241;28;20280;-78
2022/09/07 12:21:49;;;;;;;1.47;0.90;;;;;;;;;;5042559;28;20214;-77
2022/09/07 12:24:50;;;;;;;2.13;1.00;;;;;;;;;;5040181;28;20278;-76
2022/09/07 12:27:32;;;;;;;2.93;1.20;;;;;;;;;;5040757;28;20258;-77
2022/09/07 12:30:21;;;;;;;5.50;1.20;;;;;;;;;;5044382;28;20209;-77
2022/09/07 12:33:03;;;;;;;1.03;0.93;;;;;;;;;;5040240;28;20204;-76
2022/09/07 12:35:39;;;;;;;2.33;1.20;;;;;;;;;;5041197;28;20285;-77
2022/09/07 12:41:00;;;;;;;3.00;1.20;;;;;;;;;;5072662;28;20707;-77
2022/09/07 12:43:58;;;;;;;2.60;1.40;;;;;;;;;;5062208;28;20197;-75
2022/09/07 12:46:45;;;;;;;4.37;1.03;;;;;;;;;;5060359;28;20696;-76
2022/09/07 12:49:21;;;;;;;3.17;1.27;;;;;;;;;;5058952;28;20688;-78
2022/09/07 12:51:54;;;;;;;5.73;1.20;;;;;;;;;;5060361;28;20215;-77
2022/09/07 12:54:23;;;;;;;4.13;1.47;;;;;;;;;;5057836;28;20579;-77
2022/09/07 12:56:54;;;;;;;2.37;0.90;;;;;;;;;;5060098;28;20226;-77
2022/09/07 12:59:36;;;;;;;2.83;1.30;;;;;;;;;;5058794;28;20221;-77
2022/09/07 13:02:15;;;;;;;1.90;0.90;;;;;;;;;;5046934;28;20577;-77
2022/09/07 13:04:52;;;;;;;2.67;1.13;;;;;;;;;;5055413;28;20217;-76
2022/09/07 13:07:30;;;;;;;2.43;1.00;;;;;;;;;;5057176;28;20232;-78
2022/09/07 13:09:58;;;;;;;1.83;0.90;;;;;;;;;;5060832;28;20569;-77
2022/09/07 13:12:31;;;;;;;3.57;1.00;;;;;;;;;;5057201;28;20206;-78
2022/09/07 13:14:59;;;;;;;1.87;0.90;;;;;;;;;;5059401;28;20595;-76
2022/09/07 13:17:44;;;;;;;1.00;0.70;;;;;;;;;;5059679;28;20979;-76
2022/09/07 13:20:19;;;;;;;3.97;0.93;;;;;;;;;;5068695;28;20250;-75
2022/09/07 13:23:10;;;;;;;2.30;1.03;;;;;;;;;;5060822;28;20199;-76
2022/09/07 13:25:45;;;;;;;5.03;1.20;;;;;;;;;;5040002;28;20203;-75
2022/09/07 13:28:36;;;;;;;1.80;1.10;;;;;;;;;;5056293;28;20225;-77
2022/09/07 13:31:24;;;;;;;3.53;1.27;;;;;;;;;;5040148;28;20217;-77
2022/09/07 13:33:53;;;;;;;1.30;0.90;;;;;;;;;;5034989;28;20290;-77
2022/09/07 13:36:24;;;;;;;3.30;1.20;;;;;;;;;;5056748;28;20896;-77
2022/09/07 13:38:52;;;;;;;2.30;1.00;;;;;;;;;;5059761;28;20290;-78
2022/09/07 13:41:20;;;;;;;2.00;1.07;;;;;;;;;;5059595;28;20591;-77
2022/09/07 13:43:48;;;;;;;1.47;0.80;;;;;;;;;;5059423;28;20207;-77
2022/09/07 13:46:19;;;;;;;2.40;1.03;;;;;;;;;;5055832;28;20199;-77
2022/09/07 13:48:49;;;;;;;2.83;1.40;;;;;;;;;;5058264;28;20721;-77
2022/09/07 13:51:20;;;;;;;2.33;1.30;;;;;;;;;;5048662;28;20199;-77
2022/09/07 13:53:56;;;;;;;1.90;1.20;;;;;;;;;;5045553;28;20208;-77
2022/09/07 13:56:31;;;;;;;2.27;1.20;;;;;;;;;;5043612;28;20631;-76
2022/09/07 13:58:58;;;;;;;5.70;1.33;;;;;;;;;;5044774;28;20209;-75
2022/09/07 14:01:26;;;;;;;2.00;1.13;;;;;;;;;;5041391;28;20212;-76
2022/09/07 14:03:55;;;;;;;1.20;0.80;;;;;;;;;;5040960;28;20196;-77
2022/09/07 14:06:31;;;;;;;1.47;1.00;;;;;;;;;;5042269;28;20211;-78
2022/09/07 14:08:59;;;;;;;21.13;3.03;;;;;;;;;;5048514;28;20202;-77
2022/09/07 14:11:28;;;;;;;6.67;1.37;;;;;;;;;;5044241;28;20211;-77
2022/09/07 14:14:08;;;;;;;1.67;1.20;;;;;;;;;;5045461;28;20206;-76
2022/09/07 14:16:36;;;;;;;3.40;1.40;;;;;;;;;;5042986;28;20202;-77
2022/09/07 14:19:09;;;;;;;2.63;1.20;;;;;;;;;;5040251;28;20211;-76
2022/09/07 14:21:38;;;;;;;4.27;1.40;;;;;;;;;;5040826;28;20195;-77
2022/09/07 14:24:17;;;;;;;4.43;1.50;;;;;;;;;;5041120;28;20235;-76
2022/09/07 14:26:46;;;;;;;2.07;1.10;;;;;;;;;;5040477;28;20203;-76
2022/09/07 14:29:21;;;;;;;4.80;1.23;;;;;;;;;;5043297;28;20253;-76
2022/09/07 14:31:48;;;;;;;3.60;1.00;;;;;;;;;;5039448;28;20214;-76
2022/09/07 14:34:16;;;;;;;3.50;1.30;;;;;;;;;;5046713;28;20205;-76
2022/09/07 14:36:45;;;;;;;4.27;1.23;;;;;;;;;;5041014;28;20207;-76
2022/09/07 14:39:13;;;;;;;5.33;1.20;;;;;;;;;;5039079;28;20234;-77
2022/09/07 14:41:41;;;;;;;3.53;1.40;;;;;;;;;;5042201;28;20199;-77
2022/09/07 14:44:26;;;;;;;3.20;1.43;;;;;;;;;;5043986;28;22711;-76
2022/09/07 14:49:22;;;;;;;2.00;1.27;;;;;;;;;;5022045;28;20211;-76
2022/09/07 14:51:52;;;;;;;3.67;1.47;;;;;;;;;;5017950;28;20216;-75
2022/09/07 14:54:21;;;;;;;3.13;1.33;;;;;;;;;;5022084;28;20200;-76
2022/09/07 14:56:59;;;;;;;2.00;1.20;;;;;;;;;;5022399;28;20228;-75
2022/09/07 14:59:28;;;;;;;1.50;1.03;;;;;;;;;;5025345;28;20265;-76
2022/09/07 15:02:10;;;;;;;5.30;1.47;;;;;;;;;;5019741;28;20579;-76
2022/09/07 15:04:37;;;;;;;7.33;1.40;;;;;;;;;;5018608;28;20212;-76
2022/09/07 15:07:19;;;;;;;2.70;1.37;;;;;;;;;;5019323;28;20227;-75
2022/09/07 15:09:47;;;;;;;2.23;1.40;;;;;;;;;;5019632;28;20198;-74